Time;durP1;ratioP1;P1;durP2;ratioP2;P2;SDS_P1;SDS_P2;PMS_P1;PMS_P2;Temp;Humidity;BMP_temperature;BMP_pressure;BME280_temperature;BME280_humidity;BME280_pressure;Samples;Min_cycle;Max_cycle;Signal;HPM_P1;HPM_P2
2023/03/24 00:02:08;;;;;;;14.55;6.03;;;11.00;99.90;;;;;;5092024;28;20043;-50
2023/03/24 00:04:34;;;;;;;14.73;6.13;;;11.70;99.90;;;;;;5092229;28;20040;-48
2023/03/24 00:07:02;;;;;;;13.10;6.30;;;11.90;99.90;;;;;;5090561;28;20059;-49
2023/03/24 00:09:29;;;;;;;12.77;6.13;;;11.60;99.90;;;;;;5092197;28;20060;-52
2023/03/24 00:11:58;;;;;;;16.13;6.25;;;10.80;99.90;;;;;;5091924;28;20044;-50
2023/03/24 00:14:24;;;;;;;15.52;6.50;;;11.20;99.90;;;;;;5097014;28;20039;-53
2023/03/24 00:16:51;;;;;;;13.93;6.40;;;11.50;99.90;;;;;;5098617;28;20488;-52
2023/03/24 00:19:18;;;;;;;13.93;5.70;;;11.00;99.90;;;;;;5097465;28;20059;-50
2023/03/24 00:21:44;;;;;;;13.23;6.32;;;10.80;99.90;;;;;;5097612;28;20047;-52
2023/03/24 00:24:11;;;;;;;14.63;6.78;;;10.80;99.90;;;;;;5098650;28;20097;-50
2023/03/24 00:26:39;;;;;;;13.23;6.35;;;10.90;99.90;;;;;;5098284;28;20063;-52
2023/03/24 00:29:07;;;;;;;12.13;6.15;;;10.80;99.90;;;;;;5098673;28;20051;-50
2023/03/24 00:31:38;;;;;;;13.10;6.47;;;11.50;99.90;;;;;;5098701;28;20038;-48
2023/03/24 00:34:07;;;;;;;15.27;6.15;;;11.30;99.90;;;;;;5098654;28;20325;-50
2023/03/24 00:36:34;;;;;;;12.82;6.63;;;11.60;99.90;;;;;;5098461;28;20046;-50
2023/03/24 00:39:00;;;;;;;14.35;6.50;;;11.40;99.90;;;;;;5098469;28;20043;-53
2023/03/24 00:41:27;;;;;;;14.63;7.13;;;11.80;99.90;;;;;;5098564;28;20051;-50
2023/03/24 00:43:56;;;;;;;15.15;6.22;;;11.80;99.90;;;;;;5098526;28;20079;-52
2023/03/24 00:46:29;;;;;;;16.17;6.32;;;10.70;99.90;;;;;;5098415;28;20055;-52
2023/03/24 00:49:01;;;;;;;11.35;6.30;;;11.20;99.90;;;;;;5098191;28;20120;-50
2023/03/24 00:51:38;;;;;;;14.05;6.05;;;11.90;99.90;;;;;;5098190;28;20093;-51
2023/03/24 00:54:05;;;;;;;12.35;5.30;;;10.80;99.90;;;;;;5098653;28;20036;-50
2023/03/24 00:56:33;;;;;;;12.20;5.80;;;11.00;99.90;;;;;;5098521;28;20036;-49
2023/03/24 00:59:01;;;;;;;11.93;5.72;;;11.30;99.90;;;;;;5098808;28;20044;-53
2023/03/24 01:01:28;;;;;;;11.05;5.45;;;12.00;99.90;;;;;;5097215;28;20055;-53
2023/03/24 01:03:55;;;;;;;10.90;5.32;;;11.60;99.90;;;;;;5098360;28;20048;-51
2023/03/24 01:06:23;;;;;;;14.18;5.97;;;10.90;99.90;;;;;;5097228;28;20047;-52
2023/03/24 01:08:52;;;;;;;12.55;5.80;;;12.00;99.90;;;;;;5098203;28;20123;-52
2023/03/24 01:11:23;;;;;;;10.68;5.43;;;11.20;99.90;;;;;;5098429;28;20076;-49
2023/03/24 01:13:51;;;;;;;10.60;5.50;;;11.80;99.90;;;;;;5096969;28;20036;-53
2023/03/24 01:16:17;;;;;;;11.38;5.90;;;10.70;99.90;;;;;;5098162;28;20051;-53
2023/03/24 01:18:43;;;;;;;11.05;5.32;;;11.90;99.90;;;;;;5097951;28;20042;-53
2023/03/24 01:21:10;;;;;;;12.40;6.10;;;10.90;99.90;;;;;;5098369;28;20051;-52
2023/03/24 01:23:37;;;;;;;12.52;5.22;;;11.80;99.90;;;;;;5098168;28;20119;-48
2023/03/24 01:26:06;;;;;;;12.18;5.57;;;10.90;99.90;;;;;;5094381;28;20047;-50
2023/03/24 01:28:33;;;;;;;14.70;5.60;;;11.00;99.90;;;;;;5094609;28;20048;-49
2023/03/24 01:30:58;;;;;;;9.85;4.80;;;11.80;99.90;;;;;;5094825;28;20036;-52
2023/03/24 01:33:24;;;;;;;12.07;5.75;;;11.00;99.90;;;;;;5093749;28;20054;-51
2023/03/24 01:35:50;;;;;;;12.25;5.90;;;11.10;99.90;;;;;;5095042;28;20064;-49
2023/03/24 01:38:16;;;;;;;10.00;5.40;;;11.50;99.90;;;;;;5094751;28;20055;-50
2023/03/24 01:40:45;;;;;;;11.98;5.80;;;11.00;99.90;;;;;;5093349;28;20404;-51
2023/03/24 01:43:20;;;;;;;11.50;6.10;;;11.70;99.90;;;;;;5093144;28;20051;-49
2023/03/24 01:46:01;;;;;;;11.00;5.15;;;10.90;99.90;;;;;;5094171;28;20051;-51
2023/03/24 01:48:33;;;;;;;11.65;5.60;;;11.80;99.90;;;;;;5094295;28;20058;-50
2023/03/24 01:51:04;;;;;;;11.18;5.97;;;11.20;99.90;;;;;;5082001;28;20032;-50
2023/03/24 01:53:33;;;;;;;12.85;5.55;;;11.50;99.90;;;;;;5094491;28;20696;-50
2023/03/24 01:56:00;;;;;;;13.48;5.60;;;11.70;99.90;;;;;;5094397;28;20032;-54
2023/03/24 01:58:29;;;;;;;10.25;5.60;;;11.00;99.90;;;;;;5094201;28;20040;-50
2023/03/24 02:00:56;;;;;;;11.25;4.97;;;11.10;99.90;;;;;;5093054;28;20048;-50
2023/03/24 02:03:24;;;;;;;10.65;5.32;;;11.50;99.90;;;;;;5094311;28;20036;-50
2023/03/24 02:05:52;;;;;;;9.52;5.45;;;11.70;99.90;;;;;;5094258;28;20032;-49
2023/03/24 02:08:30;;;;;;;12.43;5.65;;;11.90;99.90;;;;;;5093993;28;20109;-53
2023/03/24 02:10:57;;;;;;;11.60;5.55;;;11.10;99.90;;;;;;5094054;28;20064;-51
2023/03/24 02:13:23;;;;;;;12.25;5.55;;;11.80;99.90;;;;;;5094143;28;20044;-52
2023/03/24 02:16:13;;;;;;;9.75;5.30;;;11.70;99.90;;;;;;5094078;28;20403;-52
2023/03/24 02:18:58;;;;;;;9.77;5.35;;;11.00;99.90;;;;;;5093846;28;20044;-53
2023/03/24 02:21:51;;;;;;;12.10;5.65;;;11.40;99.90;;;;;;5094115;28;20079;-53
2023/03/24 02:24:29;;;;;;;11.88;5.45;;;12.00;99.90;;;;;;5092495;28;20048;-53
2023/03/24 02:27:02;;;;;;;12.18;5.80;;;12.00;99.90;;;;;;5093648;28;20060;-53
2023/03/24 02:30:05;;;;;;;11.40;6.30;;;12.00;99.90;;;;;;5093503;28;20048;-51
2023/03/24 02:32:52;;;;;;;10.88;5.57;;;11.60;99.90;;;;;;5092577;28;20094;-53
2023/03/24 02:35:36;;;;;;;10.20;6.28;;;12.10;99.90;;;;;;5092286;28;20044;-53
2023/03/24 02:38:02;;;;;;;10.65;6.40;;;11.20;99.90;;;;;;5093298;28;20442;-53
2023/03/24 02:40:49;;;;;;;11.43;6.88;;;11.00;99.90;;;;;;5093529;28;20044;-52
2023/03/24 02:43:21;;;;;;;11.98;6.53;;;12.10;99.90;;;;;;5093408;28;20048;-52
2023/03/24 02:45:56;;;;;;;10.15;6.07;;;11.10;99.90;;;;;;5093388;28;20036;-52
2023/03/24 02:48:27;;;;;;;11.93;6.20;;;11.20;99.90;;;;;;5093080;28;20130;-52
2023/03/24 02:51:04;;;;;;;11.43;6.25;;;11.10;99.90;;;;;;5093194;28;20514;-53
2023/03/24 02:53:48;;;;;;;11.63;6.53;;;11.50;99.90;;;;;;5092124;28;20111;-51
2023/03/24 02:56:37;;;;;;;11.30;6.22;;;11.90;99.90;;;;;;5092206;28;20079;-52
2023/03/24 02:59:05;;;;;;;12.35;6.80;;;12.10;99.90;;;;;;5093316;28;20036;-50
2023/03/24 03:01:39;;;;;;;11.88;7.07;;;11.30;99.90;;;;;;5093222;28;20384;-53
2023/03/24 03:04:13;;;;;;;10.25;6.10;;;11.10;99.90;;;;;;5092926;28;20048;-50
2023/03/24 03:06:42;;;;;;;10.52;6.55;;;12.10;99.90;;;;;;5093067;28;20487;-49
2023/03/24 03:09:11;;;;;;;11.88;6.30;;;12.10;99.90;;;;;;5092835;28;20384;-49
2023/03/24 03:11:39;;;;;;;11.18;5.72;;;11.40;99.90;;;;;;5093211;28;20096;-52
2023/03/24 03:14:11;;;;;;;11.00;5.72;;;12.20;99.90;;;;;;5092937;28;20125;-50
2023/03/24 03:16:52;;;;;;;10.02;5.75;;;11.90;99.90;;;;;;5092853;28;20151;-51
2023/03/24 03:19:33;;;;;;;14.00;6.80;;;11.30;99.90;;;;;;5091493;28;20126;-51
2023/03/24 03:22:03;;;;;;;8.85;5.22;;;12.10;99.90;;;;;;5092965;28;20043;-50
2023/03/24 03:24:38;;;;;;;8.77;4.65;;;11.30;99.90;;;;;;5092801;28;20048;-52
2023/03/24 03:27:17;;;;;;;8.07;4.47;;;11.90;99.90;;;;;;5091346;28;20070;-53
2023/03/24 03:29:49;;;;;;;7.45;4.18;;;11.00;99.90;;;;;;5092518;28;20127;-50
2023/03/24 03:32:23;;;;;;;8.35;4.00;;;11.80;99.90;;;;;;5091295;28;20051;-52
2023/03/24 03:35:18;;;;;;;9.20;3.92;;;11.20;99.90;;;;;;5091134;28;20115;-53
2023/03/24 03:37:50;;;;;;;9.82;4.22;;;11.50;99.90;;;;;;5083277;28;20435;-49
2023/03/24 03:40:21;;;;;;;8.00;3.85;;;11.20;99.90;;;;;;5091098;28;20052;-49
2023/03/24 03:42:47;;;;;;;12.07;4.55;;;10.80;99.90;;;;;;5092584;28;20388;-50
2023/03/24 03:45:13;;;;;;;9.43;3.20;;;11.10;99.90;;;;;;5092474;28;20055;-50
2023/03/24 03:47:40;;;;;;;7.82;3.25;;;11.30;99.90;;;;;;5092002;28;20040;-49
2023/03/24 03:50:07;;;;;;;8.23;3.30;;;11.20;99.90;;;;;;5091619;28;20085;-50
2023/03/24 03:52:35;;;;;;;8.25;2.70;;;11.10;99.90;;;;;;5092342;28;20441;-50
2023/03/24 03:55:03;;;;;;;12.82;2.53;;;11.00;99.90;;;;;;5092152;28;20044;-50
2023/03/24 03:57:29;;;;;;;7.65;2.42;;;10.70;99.90;;;;;;5092414;28;20396;-52
2023/03/24 03:59:55;;;;;;;8.85;2.10;;;10.70;99.90;;;;;;5092196;28;20036;-49
2023/03/24 04:02:42;;;;;;;6.68;1.77;;;10.80;99.90;;;;;;5090860;28;20474;-48
2023/03/24 04:05:16;;;;;;;8.73;1.95;;;10.70;99.90;;;;;;5091992;28;20028;-50
2023/03/24 04:08:02;;;;;;;8.52;1.88;;;10.40;99.90;;;;;;5092173;28;20036;-49
2023/03/24 04:11:05;;;;;;;11.18;2.55;;;10.60;99.90;;;;;;5091897;28;20072;-49
2023/03/24 04:13:44;;;;;;;8.40;1.85;;;10.20;99.90;;;;;;5090756;28;20059;-48
2023/03/24 04:16:21;;;;;;;12.48;1.90;;;10.20;99.90;;;;;;5092284;28;20055;-50
2023/03/24 04:19:24;;;;;;;7.10;1.65;;;10.40;99.90;;;;;;5092069;28;20068;-53
2023/03/24 04:22:08;;;;;;;11.40;2.15;;;10.40;99.90;;;;;;5091871;28;20036;-52
2023/03/24 04:24:43;;;;;;;7.38;1.60;;;10.00;99.90;;;;;;5091825;28;20048;-49
2023/03/24 04:27:26;;;;;;;8.02;2.20;;;10.10;99.90;;;;;;5091698;28;20052;-48
2023/03/24 04:29:54;;;;;;;9.10;1.80;;;10.20;99.90;;;;;;5091836;28;20056;-49
2023/03/24 04:32:40;;;;;;;9.88;1.77;;;9.90;99.90;;;;;;5092287;28;20043;-52
2023/03/24 04:35:14;;;;;;;8.45;2.25;;;10.00;99.90;;;;;;5090768;28;20044;-49
2023/03/24 04:37:40;;;;;;;9.95;1.92;;;9.50;99.90;;;;;;5090519;28;20044;-48
2023/03/24 04:40:13;;;;;;;8.65;1.98;;;9.90;99.90;;;;;;5091745;28;20048;-49
2023/03/24 04:42:51;;;;;;;8.40;1.55;;;9.60;99.90;;;;;;5091626;28;20554;-51
2023/03/24 04:45:18;;;;;;;12.27;2.17;;;9.80;99.90;;;;;;5091914;28;20036;-49
2023/03/24 04:47:55;;;;;;;8.95;1.98;;;9.40;99.90;;;;;;5091750;28;20055;-51
2023/03/24 04:50:35;;;;;;;10.73;2.08;;;9.30;99.90;;;;;;5091300;28;20133;-50
2023/03/24 04:53:02;;;;;;;9.23;2.47;;;9.70;99.90;;;;;;5091539;28;20067;-50
2023/03/24 04:55:49;;;;;;;12.85;2.22;;;9.70;99.90;;;;;;5091824;28;20039;-49
2023/03/24 04:58:16;;;;;;;11.55;2.20;;;9.20;99.90;;;;;;5091612;28;20044;-49
2023/03/24 05:00:42;;;;;;;13.27;2.20;;;9.40;99.90;;;;;;5093078;28;20044;-49
2023/03/24 05:03:12;;;;;;;10.95;2.35;;;9.10;99.90;;;;;;5095446;28;20115;-52
2023/03/24 05:05:43;;;;;;;13.48;1.85;;;9.50;99.90;;;;;;5095265;28;20040;-50
2023/03/24 05:08:09;;;;;;;13.82;2.03;;;9.20;99.90;;;;;;5095665;28;20036;-50
2023/03/24 05:10:36;;;;;;;13.27;2.58;;;9.10;99.90;;;;;;5095261;28;20048;-50
2023/03/24 05:13:04;;;;;;;10.45;2.63;;;9.50;99.90;;;;;;5095202;28;20101;-48
2023/03/24 05:15:29;;;;;;;11.02;2.50;;;9.40;99.90;;;;;;5094131;28;20369;-49
2023/03/24 05:17:56;;;;;;;11.00;2.60;;;9.00;99.90;;;;;;5095109;28;20054;-49
2023/03/24 05:20:23;;;;;;;12.40;2.50;;;9.50;99.90;;;;;;5095118;28;20048;-49
2023/03/24 05:22:49;;;;;;;18.85;2.80;;;9.40;99.90;;;;;;5095306;28;20046;-53
2023/03/24 05:25:15;;;;;;;12.73;3.30;;;9.50;99.90;;;;;;5095210;28;20059;-48
2023/03/24 05:27:42;;;;;;;15.98;2.72;;;9.30;99.90;;;;;;5094656;28;20063;-50
2023/03/24 05:30:08;;;;;;;12.32;3.22;;;9.50;99.90;;;;;;5094972;28;20044;-49
2023/03/24 05:32:34;;;;;;;13.15;2.58;;;9.30;99.90;;;;;;5094812;28;20028;-50
2023/03/24 05:35:00;;;;;;;12.20;2.95;;;9.30;99.90;;;;;;5094797;28;20117;-48
2023/03/24 05:37:26;;;;;;;12.88;3.35;;;9.50;99.90;;;;;;5094676;28;20036;-51
2023/03/24 05:39:52;;;;;;;14.68;3.92;;;9.70;99.90;;;;;;5094724;28;20093;-52
2023/03/24 05:42:19;;;;;;;18.98;2.97;;;9.30;99.90;;;;;;5094577;28;20039;-49
2023/03/24 05:44:45;;;;;;;15.65;3.30;;;9.60;99.90;;;;;;5094632;28;20102;-50
2023/03/24 05:47:14;;;;;;;11.48;3.15;;;9.40;99.90;;;;;;5094294;28;20047;-49
2023/03/24 05:49:41;;;;;;;11.18;2.78;;;9.30;99.90;;;;;;5094326;28;20453;-48
2023/03/24 05:52:08;;;;;;;17.08;3.10;;;9.80;99.90;;;;;;5094323;28;20039;-49
2023/03/24 05:54:35;;;;;;;19.92;3.90;;;9.90;99.90;;;;;;5094418;28;20040;-51
2023/03/24 05:57:02;;;;;;;15.35;3.63;;;9.30;99.90;;;;;;5094376;28;20036;-50
2023/03/24 05:59:28;;;;;;;15.18;2.83;;;9.80;99.90;;;;;;5094477;28;20047;-51
2023/03/24 06:01:57;;;;;;;15.77;3.38;;;9.90;99.90;;;;;;5094231;28;20046;-50
2023/03/24 06:04:23;;;;;;;13.80;4.53;;;9.60;99.90;;;;;;5094441;28;20119;-49
2023/03/24 06:06:49;;;;;;;12.68;2.83;;;9.50;99.90;;;;;;5094295;28;20040;-50
2023/03/24 06:09:15;;;;;;;14.25;3.03;;;9.30;99.90;;;;;;5094117;28;20047;-49
2023/03/24 06:11:43;;;;;;;14.32;3.00;;;9.20;99.90;;;;;;5092193;28;20040;-51
2023/03/24 06:14:09;;;;;;;14.63;2.85;;;9.50;99.90;;;;;;5094010;28;20044;-52
2023/03/24 06:16:37;;;;;;;13.57;3.35;;;9.60;99.90;;;;;;5093894;28;20040;-49
2023/03/24 06:19:05;;;;;;;13.07;2.80;;;9.20;99.90;;;;;;5092684;28;20555;-52
2023/03/24 06:21:32;;;;;;;13.73;3.17;;;9.70;99.90;;;;;;5092551;28;20051;-52
2023/03/24 06:23:58;;;;;;;11.63;3.45;;;9.70;99.90;;;;;;5093998;28;20044;-50
2023/03/24 06:26:24;;;;;;;14.80;3.47;;;9.50;99.90;;;;;;5092431;28;20071;-50
2023/03/24 06:28:52;;;;;;;19.38;3.80;;;9.60;99.90;;;;;;5093560;28;20186;-52
2023/03/24 06:31:20;;;;;;;13.27;3.10;;;9.70;99.90;;;;;;5094027;28;20400;-51
2023/03/24 06:33:51;;;;;;;12.70;2.70;;;9.50;99.90;;;;;;5093229;28;20050;-50
2023/03/24 06:36:17;;;;;;;14.10;3.15;;;9.20;99.90;;;;;;5092232;28;20044;-51
2023/03/24 06:38:44;;;;;;;13.90;3.08;;;9.70;99.90;;;;;;5090831;28;20059;-48
2023/03/24 06:41:10;;;;;;;15.50;2.70;;;9.70;99.90;;;;;;5090422;28;20079;-52
2023/03/24 06:43:36;;;;;;;13.05;2.60;;;9.50;99.90;;;;;;5091571;28;20035;-49
2023/03/24 06:46:02;;;;;;;16.40;2.88;;;9.30;99.90;;;;;;5092311;28;20094;-50
2023/03/24 06:48:28;;;;;;;15.57;2.45;;;9.80;99.90;;;;;;5091642;28;20486;-50
2023/03/24 06:50:54;;;;;;;15.82;2.60;;;9.80;99.90;;;;;;5091764;28;20032;-52
2023/03/24 06:53:21;;;;;;;15.57;3.08;;;9.50;99.90;;;;;;5091362;28;20048;-48
2023/03/24 06:55:50;;;;;;;13.23;2.70;;;9.40;99.90;;;;;;5091454;28;20389;-48
2023/03/24 06:58:16;;;;;;;13.10;2.97;;;9.70;99.90;;;;;;5089710;28;20478;-49
2023/03/24 07:00:45;;;;;;;13.20;3.53;;;9.80;99.90;;;;;;5091204;28;20058;-50
2023/03/24 07:03:12;;;;;;;14.93;2.72;;;9.80;99.90;;;;;;5091432;28;20040;-50
2023/03/24 07:05:44;;;;;;;13.10;2.47;;;9.90;99.90;;;;;;5091453;28;20048;-50
2023/03/24 07:08:10;;;;;;;15.52;3.67;;;9.90;99.90;;;;;;5090976;28;20048;-52
2023/03/24 07:10:40;;;;;;;19.08;3.25;;;9.90;99.90;;;;;;5091133;28;20032;-49
2023/03/24 07:13:07;;;;;;;17.05;3.17;;;9.70;99.90;;;;;;5091423;28;20119;-50
2023/03/24 07:15:33;;;;;;;20.65;3.28;;;9.90;99.90;;;;;;5091625;28;20435;-49
2023/03/24 07:17:58;;;;;;;16.48;2.72;;;9.80;99.90;;;;;;5091326;28;20130;-53
2023/03/24 07:20:24;;;;;;;17.30;3.75;;;9.90;99.90;;;;;;5091067;28;20048;-51
2023/03/24 07:22:54;;;;;;;15.90;3.78;;;9.80;99.90;;;;;;5090264;28;20036;-51
2023/03/24 07:25:20;;;;;;;16.73;2.80;;;9.60;99.90;;;;;;5090960;28;20074;-48
2023/03/24 07:27:46;;;;;;;15.52;3.58;;;9.70;99.90;;;;;;5089436;28;20048;-49
2023/03/24 07:30:12;;;;;;;17.02;3.05;;;10.00;99.90;;;;;;5089824;28;20052;-48
2023/03/24 07:32:39;;;;;;;15.65;2.75;;;9.80;99.90;;;;;;5091048;28;20032;-49
2023/03/24 07:35:07;;;;;;;22.23;3.05;;;10.10;99.90;;;;;;5091084;28;20066;-50
2023/03/24 07:37:32;;;;;;;20.02;3.97;;;10.10;99.90;;;;;;5090858;28;20032;-48
2023/03/24 07:39:58;;;;;;;17.23;3.42;;;10.20;99.90;;;;;;5090643;28;20040;-53
2023/03/24 07:42:24;;;;;;;14.45;3.13;;;9.80;99.90;;;;;;5090619;28;20342;-52
2023/03/24 07:44:50;;;;;;;17.27;3.03;;;9.80;99.90;;;;;;5089789;28;20636;-49
2023/03/24 07:47:16;;;;;;;16.17;2.83;;;10.20;99.90;;;;;;5091411;28;20039;-50
2023/03/24 07:49:42;;;;;;;19.55;3.17;;;10.20;99.90;;;;;;5091664;28;20048;-51
2023/03/24 07:52:07;;;;;;;19.83;3.40;;;10.10;99.90;;;;;;5092221;28;20043;-52
2023/03/24 07:54:33;;;;;;;16.38;3.20;;;10.20;99.90;;;;;;5092199;28;20093;-50
2023/03/24 07:57:00;;;;;;;18.30;2.88;;;10.30;99.90;;;;;;5092170;28;20097;-51
2023/03/24 07:59:26;;;;;;;19.35;3.90;;;10.00;99.90;;;;;;5092169;28;20054;-49
2023/03/24 08:01:52;;;;;;;18.27;3.17;;;9.90;99.90;;;;;;5092012;28;20040;-51
2023/03/24 08:04:18;;;;;;;22.67;3.33;;;10.00;99.90;;;;;;5091911;28;20193;-47
2023/03/24 08:06:44;;;;;;;16.70;2.83;;;10.00;99.90;;;;;;5091939;28;20064;-52
2023/03/24 08:09:11;;;;;;;19.27;3.50;;;10.20;99.90;;;;;;5091808;28;20492;-51
2023/03/24 08:11:37;;;;;;;19.52;2.80;;;10.20;99.90;;;;;;5092207;28;20044;-49
2023/03/24 08:14:03;;;;;;;16.73;3.55;;;10.10;99.90;;;;;;5091735;28;20074;-48
2023/03/24 08:16:29;;;;;;;18.15;3.17;;;10.10;99.90;;;;;;5092018;28;20068;-49
2023/03/24 08:18:57;;;;;;;20.63;4.38;;;10.10;99.90;;;;;;5091940;28;20399;-48
2023/03/24 08:21:23;;;;;;;19.60;3.25;;;10.00;99.90;;;;;;5091571;28;20036;-49
2023/03/24 08:23:49;;;;;;;19.40;3.50;;;10.10;99.90;;;;;;5091703;28;20043;-48
2023/03/24 08:26:15;;;;;;;17.75;3.78;;;10.40;99.90;;;;;;5091740;28;20406;-50
2023/03/24 08:28:41;;;;;;;20.52;3.78;;;10.40;99.90;;;;;;5090031;28;20131;-48
2023/03/24 08:31:07;;;;;;;19.05;3.53;;;10.40;99.90;;;;;;5091820;28;20119;-51
2023/03/24 08:33:33;;;;;;;19.60;4.10;;;10.40;99.90;;;;;;5089522;28;20048;-52
2023/03/24 08:35:59;;;;;;;15.57;3.00;;;10.20;99.90;;;;;;5093706;28;20036;-51
2023/03/24 08:38:29;;;;;;;25.75;4.25;;;10.50;99.90;;;;;;5094120;28;20040;-48
2023/03/24 08:41:00;;;;;;;19.40;3.80;;;10.60;99.90;;;;;;5094068;28;20445;-51
2023/03/24 08:43:28;;;;;;;20.88;3.28;;;10.50;99.90;;;;;;5092985;28;20556;-50
2023/03/24 08:45:55;;;;;;;21.40;3.97;;;10.60;99.90;;;;;;5093614;28;20044;-49
2023/03/24 08:48:21;;;;;;;17.15;3.88;;;10.70;99.90;;;;;;5093082;28;20040;-49
2023/03/24 08:50:47;;;;;;;20.75;4.40;;;10.60;99.90;;;;;;5093757;28;20047;-50
2023/03/24 08:53:13;;;;;;;19.65;3.95;;;10.80;99.90;;;;;;5094151;28;20036;-49
2023/03/24 08:55:42;;;;;;;20.67;4.30;;;10.80;99.90;;;;;;5092621;28;20040;-49
2023/03/24 08:58:12;;;;;;;19.70;3.05;;;10.90;99.90;;;;;;5093454;28;20048;-48
2023/03/24 09:00:39;;;;;;;18.88;3.00;;;10.80;99.90;;;;;;5092766;28;20123;-50
2023/03/24 09:03:05;;;;;;;23.67;4.25;;;10.90;99.90;;;;;;5087622;28;20032;-51
2023/03/24 09:05:31;;;;;;;21.63;4.22;;;10.80;99.90;;;;;;5083540;28;20472;-48
2023/03/24 09:07:59;;;;;;;18.48;3.40;;;11.00;99.90;;;;;;5082264;28;20036;-49
2023/03/24 09:10:25;;;;;;;18.05;3.25;;;11.20;99.90;;;;;;5082879;28;20099;-52
2023/03/24 09:12:51;;;;;;;21.38;3.50;;;11.30;99.90;;;;;;5082024;28;20502;-51
2023/03/24 09:15:17;;;;;;;14.73;3.17;;;11.50;99.90;;;;;;5091979;28;20036;-49
2023/03/24 09:17:43;;;;;;;21.17;4.38;;;11.50;99.90;;;;;;5093617;28;20135;-51
2023/03/24 09:20:12;;;;;;;25.95;3.67;;;11.50;99.90;;;;;;5093443;28;20097;-49
2023/03/24 09:22:39;;;;;;;17.08;3.85;;;11.50;99.90;;;;;;5093481;28;20062;-49
2023/03/24 09:25:06;;;;;;;15.43;3.40;;;11.70;99.90;;;;;;5093548;28;20040;-51
2023/03/24 09:27:32;;;;;;;17.95;3.40;;;11.30;99.90;;;;;;5093124;28;20044;-52
2023/03/24 09:29:57;;;;;;;17.33;4.30;;;11.30;99.90;;;;;;5093437;28;20541;-53
2023/03/24 09:32:23;;;;;;;17.30;3.40;;;11.10;99.90;;;;;;5091845;28;20115;-50
2023/03/24 09:34:49;;;;;;;22.60;2.60;;;10.90;99.90;;;;;;5093149;28;20114;-49
2023/03/24 09:37:15;;;;;;;18.95;3.00;;;10.90;99.90;;;;;;5093313;28;20039;-49
2023/03/24 09:39:40;;;;;;;18.60;2.80;;;10.90;99.90;;;;;;5093066;28;20051;-54
2023/03/24 09:42:20;;;;;;;14.65;2.70;;;11.00;99.90;;;;;;5093253;28;20059;-49
2023/03/24 09:44:49;;;;;;;15.70;3.00;;;11.10;99.90;;;;;;5087880;28;20128;-52
2023/03/24 09:47:37;;;;;;;18.27;3.42;;;11.20;99.90;;;;;;5071843;28;20079;-48
2023/03/24 09:50:14;;;;;;;15.05;2.63;;;11.40;99.90;;;;;;5088462;28;20126;-52
2023/03/24 09:52:42;;;;;;;19.20;2.92;;;11.60;99.90;;;;;;5092839;28;20044;-51
2023/03/24 09:55:23;;;;;;;14.85;2.45;;;11.80;99.90;;;;;;5092300;28;20093;-50
2023/03/24 09:57:50;;;;;;;18.10;3.42;;;11.80;99.90;;;;;;5092392;28;20421;-48
2023/03/24 10:00:21;;;;;;;17.20;2.80;;;11.80;99.90;;;;;;5092858;28;20083;-51
2023/03/24 10:02:48;;;;;;;13.88;2.40;;;11.80;99.90;;;;;;5092846;28;20048;-48
2023/03/24 10:05:44;;;;;;;17.20;2.67;;;11.80;99.90;;;;;;5088802;28;20043;-49
2023/03/24 10:08:32;;;;;;;16.30;2.40;;;11.70;99.90;;;;;;5074195;28;20098;-49
2023/03/24 10:11:06;;;;;;;12.13;2.92;;;11.50;99.90;;;;;;5082041;28;20063;-48
2023/03/24 10:14:03;;;;;;;17.27;2.60;;;11.40;99.90;;;;;;5080894;28;20033;-51
2023/03/24 10:16:48;;;;;;;12.32;2.28;;;11.40;99.90;;;;;;5082743;28;20032;-50
2023/03/24 10:19:47;;;;;;;17.90;2.72;;;11.70;99.90;;;;;;5079396;28;20029;-49
2023/03/24 10:22:19;;;;;;;13.27;2.40;;;11.90;99.90;;;;;;5081123;28;20043;-51
2023/03/24 10:24:57;;;;;;;17.38;3.25;;;12.10;99.90;;;;;;5078258;28;20133;-48
2023/03/24 10:27:43;;;;;;;17.65;3.13;;;12.20;99.90;;;;;;5083386;28;20060;-47
2023/03/24 10:30:42;;;;;;;13.30;2.40;;;12.00;99.90;;;;;;5079125;28;20047;-48
2023/03/24 10:33:12;;;;;;;14.48;3.50;;;12.20;99.90;;;;;;5050405;28;20040;-52
2023/03/24 10:35:45;;;;;;;11.95;2.30;;;12.10;99.90;;;;;;5072319;28;20041;-49
2023/03/24 10:38:19;;;;;;;18.00;3.25;;;12.10;99.90;;;;;;5072969;28;20048;-52
2023/03/24 10:40:46;;;;;;;12.93;2.25;;;12.00;99.90;;;;;;5072900;28;20032;-51
2023/03/24 10:43:14;;;;;;;13.07;2.42;;;12.20;99.90;;;;;;5071827;28;20112;-51
2023/03/24 10:45:43;;;;;;;16.10;2.63;;;12.10;99.90;;;;;;5073326;28;20111;-50
2023/03/24 10:48:13;;;;;;;11.68;2.58;;;12.00;99.90;;;;;;5073367;28;20064;-52
2023/03/24 10:50:43;;;;;;;11.82;2.45;;;11.80;99.90;;;;;;5093133;28;20369;-49
2023/03/24 10:53:17;;;;;;;13.68;2.38;;;11.70;99.90;;;;;;5093134;28;20036;-51
2023/03/24 10:55:43;;;;;;;11.60;3.00;;;11.50;99.90;;;;;;5092683;28;20032;-50
2023/03/24 10:58:38;;;;;;;14.85;2.50;;;11.40;99.90;;;;;;5092808;28;20047;-49
2023/03/24 11:01:21;;;;;;;17.63;2.45;;;11.50;99.90;;;;;;5092661;28;20051;-49
2023/03/24 11:03:48;;;;;;;15.57;2.83;;;11.50;99.90;;;;;;5091707;28;20122;-50
2023/03/24 11:06:18;;;;;;;12.02;2.40;;;11.80;99.90;;;;;;5092696;28;20036;-48
2023/03/24 11:08:44;;;;;;;14.50;3.03;;;11.90;99.90;;;;;;5092819;28;20051;-47
2023/03/24 11:11:30;;;;;;;13.70;2.60;;;12.20;99.90;;;;;;5092881;28;20040;-48
2023/03/24 11:14:02;;;;;;;14.75;2.67;;;12.50;99.90;;;;;;5092798;28;20039;-48
2023/03/24 11:16:34;;;;;;;13.23;2.42;;;12.90;99.90;;;;;;5092538;28;20028;-52
2023/03/24 11:19:05;;;;;;;16.73;3.75;;;12.60;99.90;;;;;;5091580;28;20081;-49
2023/03/24 11:21:34;;;;;;;14.82;2.30;;;12.50;99.90;;;;;;5092236;28;20056;-48
2023/03/24 11:24:09;;;;;;;8.93;2.20;;;12.40;99.90;;;;;;5092367;28;20503;-51
2023/03/24 11:26:37;;;;;;;16.55;2.33;;;12.50;99.90;;;;;;5091989;28;20068;-48
2023/03/24 11:29:17;;;;;;;11.65;1.92;;;12.60;99.90;;;;;;5090758;28;20062;-50
2023/03/24 11:31:52;;;;;;;16.52;2.83;;;12.80;99.90;;;;;;5092542;28;20063;-49
2023/03/24 11:34:24;;;;;;;14.80;2.75;;;13.10;99.90;;;;;;5074169;28;20055;-48
2023/03/24 11:36:54;;;;;;;16.23;3.10;;;13.10;99.90;;;;;;5092005;28;20097;-48
2023/03/24 11:39:23;;;;;;;12.23;3.00;;;13.10;99.90;;;;;;5092335;28;20403;-49
2023/03/24 11:42:11;;;;;;;13.10;2.60;;;13.30;99.90;;;;;;5091946;28;20040;-49
2023/03/24 11:44:37;;;;;;;16.80;2.72;;;13.30;99.90;;;;;;5092495;28;20044;-48
2023/03/24 11:47:09;;;;;;;12.43;2.60;;;13.20;99.90;;;;;;5091965;28;20442;-50
2023/03/24 11:49:47;;;;;;;13.55;2.08;;;12.90;99.90;;;;;;5090578;28;20047;-49
2023/03/24 11:52:26;;;;;;;11.85;2.53;;;13.20;99.90;;;;;;5092024;28;20096;-49
2023/03/24 11:54:52;;;;;;;17.50;2.38;;;13.10;99.90;;;;;;5092173;28;20079;-49
2023/03/24 11:57:46;;;;;;;12.20;2.33;;;13.10;99.90;;;;;;5091616;28;20079;-52
2023/03/24 12:00:19;;;;;;;11.48;2.17;;;13.10;99.90;;;;;;5091967;28;20656;-50
2023/03/24 12:03:00;;;;;;;14.80;2.60;;;13.20;99.90;;;;;;5090912;28;20044;-49
2023/03/24 12:05:40;;;;;;;12.95;3.03;;;13.10;99.90;;;;;;5090788;28;20043;-50
2023/03/24 12:08:33;;;;;;;15.23;1.98;;;13.30;99.90;;;;;;5091733;28;20051;-52
2023/03/24 12:11:36;;;;;;;15.80;2.40;;;13.40;99.90;;;;;;5091608;28;20064;-49
2023/03/24 12:14:03;;;;;;;15.95;2.67;;;13.60;99.90;;;;;;5088706;28;20075;-49
2023/03/24 12:16:50;;;;;;;13.52;2.33;;;13.40;99.90;;;;;;5090760;28;20090;-53
2023/03/24 12:19:34;;;;;;;15.90;2.83;;;12.90;99.90;;;;;;5091901;28;20036;-49
2023/03/24 12:22:18;;;;;;;14.65;2.30;;;12.90;99.90;;;;;;5091690;28;20553;-49
2023/03/24 12:25:21;;;;;;;14.77;2.20;;;12.80;99.90;;;;;;5091822;28;20471;-52
2023/03/24 12:27:53;;;;;;;16.63;3.22;;;12.90;99.90;;;;;;5091660;28;20048;-49
2023/03/24 12:30:32;;;;;;;10.63;2.42;;;13.00;99.90;;;;;;5091877;28;20047;-50
2023/03/24 12:33:20;;;;;;;16.65;2.83;;;13.00;99.90;;;;;;5091469;28;20407;-52
2023/03/24 12:35:54;;;;;;;11.73;2.30;;;12.80;99.90;;;;;;5091571;28;20036;-52
2023/03/24 12:38:44;;;;;;;19.35;3.20;;;12.60;99.90;;;;;;5091691;28;20040;-50
2023/03/24 12:41:34;;;;;;;14.35;2.35;;;12.60;99.90;;;;;;5091306;28;20032;-51
2023/03/24 12:44:27;;;;;;;15.60;3.90;;;12.50;99.90;;;;;;5091161;28;20115;-49
2023/03/24 12:47:05;;;;;;;14.15;3.15;;;12.50;99.90;;;;;;5091793;28;20036;-49
2023/03/24 12:49:41;;;;;;;12.98;3.15;;;12.60;99.90;;;;;;5091327;28;20079;-52
2023/03/24 12:52:15;;;;;;;15.85;2.20;;;12.80;99.90;;;;;;5091390;28;20043;-50
2023/03/24 12:55:13;;;;;;;15.75;2.20;;;12.70;99.90;;;;;;5091307;28;20043;-49
2023/03/24 12:57:49;;;;;;;16.35;2.80;;;12.50;99.90;;;;;;5091202;28;20488;-50
2023/03/24 13:00:24;;;;;;;11.77;2.35;;;12.50;99.90;;;;;;5091278;28;20043;-49
2023/03/24 13:02:58;;;;;;;17.20;2.67;;;12.40;99.90;;;;;;5091272;28;20080;-49
2023/03/24 13:05:32;;;;;;;16.88;3.67;;;12.60;99.90;;;;;;5091309;28;20048;-48